Time,TemperatureF,DewpointF,PressureIn,WindDirection,WindDirectionDegrees,WindSpeedMPH,WindSpeedGustMPH,Humidity,HourlyPrecipIn,Conditions,Clouds,dailyrainin,SolarRadiationWatts/m^2,SoftwareType,DateUTC
2013-01-30 00:01:00,51.0,42.0,-100.00,NE,35,3.0,15.0,71,0.00,,,0.00,0.000000,,2013-01-30 08:01:00,
2013-01-30 00:11:00,51.0,42.0,-100.00,NE,35,3.0,15.0,71,0.00,,,0.00,0.000000,,2013-01-30 08:11:00,
2013-01-30 00:21:00,51.0,42.0,-100.00,NE,35,3.0,15.0,71,0.00,,,0.00,0.000000,,2013-01-30 08:21:00,
2013-01-30 00:52:00,49.0,41.0,-100.00,North,4,1.0,7.0,73,0.00,,,0.00,0.000000,,2013-01-30 08:52:00,
2013-01-30 01:01:00,49.0,41.0,-100.00,North,4,1.0,7.0,73,0.00,,,0.00,0.000000,,2013-01-30 09:01:00,
2013-01-30 01:11:00,49.0,41.0,-100.00,North,4,1.0,7.0,73,0.00,,,0.00,0.000000,,2013-01-30 09:11:00,
2013-01-30 01:21:00,49.0,41.0,-100.00,North,4,1.0,7.0,73,0.00,,,0.00,0.000000,,2013-01-30 09:21:00,
2013-01-30 02:52:00,49.0,41.0,-100.00,NNE,32,1.0,6.0,74,-99.99,,,0.00,0.000000,,2013-01-30 10:52:00,
2013-01-30 03:02:00,49.0,41.0,-100.00,NNE,32,1.0,6.0,74,-99.99,,,0.00,0.000000,,2013-01-30 11:02:00,
2013-01-30 03:11:00,49.0,41.0,-100.00,NNE,32,1.0,6.0,74,-99.99,,,0.00,0.000000,,2013-01-30 11:11:00,
2013-01-30 03:21:00,49.0,41.0,-100.00,NNE,32,1.0,6.0,74,-99.99,,,0.00,0.000000,,2013-01-30 11:21:00,
2013-01-30 03:52:00,50.0,40.0,-100.00,North,352,4.0,9.0,68,0.00,,,0.00,0.000000,,2013-01-30 11:52:00,
2013-01-30 04:02:00,50.0,40.0,-100.00,North,352,4.0,9.0,68,0.00,,,0.00,0.000000,,2013-01-30 12:02:00,
2013-01-30 04:12:00,50.0,40.0,-100.00,North,352,4.0,9.0,68,0.00,,,0.00,0.000000,,2013-01-30 12:12:00,
2013-01-30 04:21:00,50.0,40.0,-100.00,North,352,4.0,9.0,68,0.00,,,0.00,0.000000,,2013-01-30 12:21:00,
2013-01-30 05:02:00,48.0,39.0,-100.00,WSW,240,2.0,9.0,71,-99.99,,,0.00,0.000000,,2013-01-30 13:02:00,
2013-01-30 05:12:00,48.0,39.0,-100.00,WSW,240,2.0,9.0,71,-99.99,,,0.00,0.000000,,2013-01-30 13:12:00,
2013-01-30 05:22:00,48.0,39.0,-100.00,WSW,240,2.0,9.0,71,-99.99,,,0.00,0.000000,,2013-01-30 13:22:00,
2013-01-30 05:53:00,49.0,39.0,-100.00,NNE,13,4.0,9.0,69,0.00,,,0.00,0.000000,,2013-01-30 13:53:00,
2013-01-30 06:02:00,49.0,39.0,-100.00,NNE,13,4.0,9.0,69,0.00,,,0.00,0.000000,,2013-01-30 14:02:00,
2013-01-30 06:11:00,49.0,39.0,-100.00,NNE,13,4.0,9.0,69,0.00,,,0.00,0.000000,,2013-01-30 14:11:00,
2013-01-30 06:22:00,49.0,39.0,-100.00,NNE,13,4.0,9.0,69,0.00,,,0.00,0.000000,,2013-01-30 14:22:00,
2013-01-30 07:53:00,47.0,39.0,-100.00,NNE,33,2.0,5.0,74,-99.99,,,0.00,2.000000,,2013-01-30 15:53:00,
2013-01-30 08:52:00,48.0,42.0,-100.00,NE,43,2.0,5.0,79,-99.99,,,-99.99,44.000000,,2013-01-30 16:52:00,
2013-01-30 09:02:00,48.0,42.0,-100.00,NE,43,2.0,5.0,79,-99.99,,,-99.99,44.000000,,2013-01-30 17:02:00,
2013-01-30 09:12:00,48.0,42.0,-100.00,NE,43,2.0,5.0,79,-99.99,,,-99.99,44.000000,,2013-01-30 17:12:00,
2013-01-30 09:22:00,48.0,42.0,-100.00,NE,43,2.0,5.0,79,-99.99,,,-99.99,44.000000,,2013-01-30 17:22:00,
2013-01-30 09:53:00,53.0,44.0,-100.00,ESE,116,2.0,5.0,72,0.00,,,0.00,219.000000,,2013-01-30 17:53:00,
2013-01-30 10:02:00,53.0,44.0,-100.00,ESE,116,2.0,5.0,72,0.00,,,0.00,219.000000,,2013-01-30 18:02:00,
2013-01-30 10:12:00,53.0,44.0,-100.00,ESE,116,2.0,5.0,72,0.00,,,0.00,219.000000,,2013-01-30 18:12:00,
2013-01-30 10:22:00,53.0,44.0,-100.00,ESE,116,2.0,5.0,72,0.00,,,0.00,219.000000,,2013-01-30 18:22:00,
2013-01-30 10:53:00,57.0,44.0,-100.00,SW,215,2.0,5.0,61,0.00,,,0.00,350.000000,,2013-01-30 18:53:00,
2013-01-30 11:02:00,57.0,44.0,-100.00,SW,215,2.0,5.0,61,0.00,,,0.00,350.000000,,2013-01-30 19:02:00,
2013-01-30 11:12:00,57.0,44.0,-100.00,SW,215,2.0,5.0,61,0.00,,,0.00,350.000000,,2013-01-30 19:12:00,
2013-01-30 11:21:00,57.0,44.0,-100.00,SW,215,2.0,5.0,61,0.00,,,0.00,350.000000,,2013-01-30 19:21:00,
2013-01-30 11:53:00,60.0,42.0,-100.00,SSW,200,4.0,7.0,51,0.00,,,0.00,449.000000,,2013-01-30 19:53:00,
2013-01-30 12:03:00,60.0,42.0,-100.00,SSW,200,4.0,7.0,51,0.00,,,0.00,449.000000,,2013-01-30 20:03:00,
2013-01-30 12:11:00,60.0,42.0,-100.00,SSW,200,4.0,7.0,51,0.00,,,0.00,449.000000,,2013-01-30 20:11:00,
2013-01-30 12:21:00,60.0,42.0,-100.00,SSW,200,4.0,7.0,51,0.00,,,0.00,449.000000,,2013-01-30 20:21:00,
2013-01-30 12:53:00,61.0,42.0,-100.00,SSW,210,5.0,9.0,50,0.00,,,0.00,492.000000,,2013-01-30 20:53:00,
2013-01-30 13:03:00,61.0,42.0,-100.00,SSW,210,5.0,9.0,50,0.00,,,0.00,492.000000,,2013-01-30 21:03:00,
2013-01-30 13:11:00,61.0,42.0,-100.00,SSW,210,5.0,9.0,50,0.00,,,0.00,492.000000,,2013-01-30 21:11:00,
2013-01-30 13:22:00,61.0,42.0,-100.00,SSW,210,5.0,9.0,50,0.00,,,0.00,492.000000,,2013-01-30 21:22:00,
2013-01-30 13:52:00,64.0,42.0,-100.00,SSW,203,6.0,11.0,45,0.00,,,0.00,492.000000,,2013-01-30 21:52:00,
2013-01-30 14:02:00,64.0,42.0,-100.00,SSW,203,6.0,11.0,45,0.00,,,0.00,492.000000,,2013-01-30 22:02:00,
2013-01-30 14:11:00,64.0,42.0,-100.00,SSW,203,6.0,11.0,45,0.00,,,0.00,492.000000,,2013-01-30 22:11:00,
2013-01-30 14:22:00,64.0,42.0,-100.00,SSW,203,6.0,11.0,45,0.00,,,0.00,492.000000,,2013-01-30 22:22:00,
2013-01-30 14:53:00,65.0,41.0,-100.00,SW,228,6.0,10.0,41,0.00,,,0.00,445.000000,,2013-01-30 22:53:00,
2013-01-30 15:02:00,65.0,41.0,-100.00,SW,228,6.0,10.0,41,0.00,,,0.00,445.000000,,2013-01-30 23:02:00,
2013-01-30 15:11:00,65.0,41.0,-100.00,SW,228,6.0,10.0,41,0.00,,,0.00,445.000000,,2013-01-30 23:11:00,
2013-01-30 15:22:00,65.0,41.0,-100.00,SW,228,6.0,10.0,41,0.00,,,0.00,445.000000,,2013-01-30 23:22:00,
2013-01-30 15:52:00,66.0,43.0,-100.00,SSW,202,6.0,10.0,43,0.00,,,0.00,343.000000,,2013-01-30 23:52:00,
2013-01-30 16:02:00,66.0,43.0,-100.00,SSW,202,6.0,10.0,43,0.00,,,0.00,343.000000,,2013-01-31 00:02:00,
2013-01-30 16:11:00,66.0,43.0,-100.00,SSW,202,6.0,10.0,43,0.00,,,0.00,343.000000,,2013-01-31 00:11:00,
2013-01-30 16:21:00,66.0,43.0,-100.00,SSW,202,6.0,10.0,43,0.00,,,0.00,343.000000,,2013-01-31 00:21:00,
2013-01-30 16:53:00,64.0,43.0,-100.00,SSW,201,8.0,12.0,46,0.00,,,0.00,209.000000,,2013-01-31 00:53:00,
2013-01-30 17:02:00,64.0,43.0,-100.00,SSW,201,8.0,12.0,46,0.00,,,0.00,209.000000,,2013-01-31 01:02:00,
2013-01-30 17:11:00,64.0,43.0,-100.00,SSW,201,8.0,12.0,46,0.00,,,0.00,209.000000,,2013-01-31 01:11:00,
2013-01-30 17:21:00,64.0,43.0,-100.00,SSW,201,8.0,12.0,46,0.00,,,0.00,209.000000,,2013-01-31 01:21:00,
2013-01-30 17:52:00,59.0,40.0,-100.00,WSW,248,6.0,11.0,50,0.00,,,0.00,64.000000,,2013-01-31 01:52:00,
2013-01-30 18:01:00,59.0,40.0,-100.00,WSW,248,6.0,11.0,50,0.00,,,0.00,64.000000,,2013-01-31 02:01:00,
2013-01-30 18:11:00,59.0,40.0,-100.00,WSW,248,6.0,11.0,50,0.00,,,0.00,64.000000,,2013-01-31 02:11:00,
2013-01-30 18:21:00,59.0,40.0,-100.00,WSW,248,6.0,11.0,50,0.00,,,0.00,64.000000,,2013-01-31 02:21:00,
2013-01-30 19:02:00,55.0,40.0,-100.00,WSW,242,3.0,7.0,56,0.00,,,0.00,1.000000,,2013-01-31 03:02:00,
2013-01-30 19:11:00,55.0,40.0,-100.00,WSW,242,3.0,7.0,56,0.00,,,0.00,1.000000,,2013-01-31 03:11:00,
2013-01-30 19:21:00,55.0,40.0,-100.00,WSW,242,3.0,7.0,56,0.00,,,0.00,1.000000,,2013-01-31 03:21:00,
2013-01-30 19:52:00,54.0,39.0,-100.00,South,183,2.0,4.0,57,0.00,,,0.00,0.000000,,2013-01-31 03:52:00,
2013-01-30 20:02:00,54.0,39.0,-100.00,South,183,2.0,4.0,57,0.00,,,0.00,0.000000,,2013-01-31 04:02:00,
2013-01-30 20:11:00,54.0,39.0,-100.00,South,183,2.0,4.0,57,0.00,,,0.00,0.000000,,2013-01-31 04:11:00,
2013-01-30 20:22:00,54.0,39.0,-100.00,South,183,2.0,4.0,57,0.00,,,0.00,0.000000,,2013-01-31 04:22:00,
2013-01-30 20:52:00,55.0,39.0,-100.00,NW,304,2.0,4.0,54,-99.99,,,0.00,0.000000,,2013-01-31 04:52:00,